Time;durP1;ratioP1;P1;durP2;ratioP2;P2;SDS_P1;SDS_P2;PMS_P1;PMS_P2;Temp;Humidity;BMP_temperature;BMP_pressure;BME280_temperature;BME280_humidity;BME280_pressure;Samples;Min_cycle;Max_cycle;Signal;HPM_P1;HPM_P2
2022/03/21 00:01:06;;;;;;;9.90;5.32;;;6.60;40.20;;;;;;5043921;28;20044;-81
2022/03/21 00:03:31;;;;;;;9.63;5.30;;;6.50;40.80;;;;;;5067821;28;20024;-81
2022/03/21 00:05:58;;;;;;;11.50;5.18;;;6.50;40.60;;;;;;5050564;28;20039;-81
2022/03/21 00:08:24;;;;;;;10.23;5.88;;;6.50;40.80;;;;;;5058255;28;20025;-81
2022/03/21 00:10:51;;;;;;;9.95;5.00;;;6.40;40.70;;;;;;5048477;28;20028;-81
2022/03/21 00:13:16;;;;;;;9.05;5.43;;;6.40;41.30;;;;;;5067659;28;20021;-80
2022/03/21 00:15:46;;;;;;;8.45;5.22;;;6.40;41.20;;;;;;5048916;28;20024;-81
2022/03/21 00:18:13;;;;;;;9.43;5.10;;;6.30;41.30;;;;;;5071615;28;20034;-81
2022/03/21 00:20:44;;;;;;;8.70;4.80;;;6.30;41.20;;;;;;5053747;28;20425;-81
2022/03/21 00:23:09;;;;;;;8.30;5.20;;;6.20;41.50;;;;;;5042955;28;20378;-81
2022/03/21 00:25:35;;;;;;;10.63;4.80;;;6.20;41.40;;;;;;5041571;28;20031;-81
2022/03/21 00:28:02;;;;;;;10.38;5.80;;;6.10;41.80;;;;;;5054225;28;20115;-81
2022/03/21 00:30:29;;;;;;;9.00;4.80;;;6.10;42.00;;;;;;5064160;28;20032;-81
2022/03/21 00:32:54;;;;;;;9.43;5.30;;;6.00;42.60;;;;;;5043073;28;20047;-81
2022/03/21 00:35:20;;;;;;;10.32;5.40;;;6.00;42.10;;;;;;5061237;28;20025;-81
2022/03/21 00:37:46;;;;;;;9.68;5.40;;;6.00;42.50;;;;;;5065558;28;20499;-82
2022/03/21 00:40:13;;;;;;;11.07;5.60;;;6.10;41.80;;;;;;5051447;28;20040;-81
2022/03/21 00:42:41;;;;;;;9.65;5.53;;;6.00;42.40;;;;;;5060194;28;20021;-81
2022/03/21 00:45:13;;;;;;;9.30;5.05;;;5.90;42.50;;;;;;5049180;28;20032;-81
2022/03/21 00:47:39;;;;;;;12.05;5.03;;;5.80;43.00;;;;;;5059902;28;20016;-80
2022/03/21 00:50:08;;;;;;;8.40;5.50;;;5.80;43.50;;;;;;5056123;28;20078;-81
2022/03/21 00:52:59;;;;;;;9.63;5.32;;;5.70;43.40;;;;;;5050137;28;20052;-81
2022/03/21 00:55:28;;;;;;;10.32;5.30;;;5.80;42.80;;;;;;5045056;28;20040;-80
2022/03/21 00:57:55;;;;;;;10.07;5.80;;;5.60;43.40;;;;;;5047521;28;20039;-81
2022/03/21 01:00:24;;;;;;;11.60;5.68;;;5.50;44.20;;;;;;5070107;28;20425;-81
2022/03/21 01:02:49;;;;;;;8.95;5.13;;;5.60;43.80;;;;;;5054956;28;20529;-81
2022/03/21 01:05:15;;;;;;;10.25;6.05;;;5.50;44.30;;;;;;5075447;28;20021;-81
2022/03/21 01:07:41;;;;;;;10.88;5.20;;;5.40;44.40;;;;;;5052602;28;20052;-81
2022/03/21 01:10:11;;;;;;;9.95;5.40;;;5.50;44.00;;;;;;5041518;28;20024;-81
2022/03/21 01:12:36;;;;;;;9.88;5.47;;;5.60;43.70;;;;;;5058151;28;20028;-81
2022/03/21 01:15:02;;;;;;;10.43;6.07;;;5.60;44.00;;;;;;5056180;28;20029;-81
2022/03/21 01:17:28;;;;;;;10.10;5.97;;;5.60;44.00;;;;;;5043072;28;20021;-81
2022/03/21 01:19:54;;;;;;;10.43;5.82;;;5.60;43.90;;;;;;5069137;28;20044;-81
2022/03/21 01:22:19;;;;;;;10.40;5.68;;;5.60;43.70;;;;;;5078461;28;20032;-81
2022/03/21 01:24:45;;;;;;;9.73;5.53;;;5.50;44.20;;;;;;5059159;28;20535;-81
2022/03/21 01:27:11;;;;;;;12.45;6.10;;;5.40;44.50;;;;;;5048687;28;20024;-81
2022/03/21 01:29:36;;;;;;;10.02;5.47;;;5.40;44.60;;;;;;5070859;28;20032;-81
2022/03/21 01:32:03;;;;;;;10.20;5.75;;;5.30;45.20;;;;;;5072645;28;20031;-81
2022/03/21 01:34:28;;;;;;;11.20;5.82;;;5.10;45.50;;;;;;5068605;28;20082;-81
2022/03/21 01:36:55;;;;;;;11.50;5.55;;;5.30;44.90;;;;;;5057863;28;20467;-80
2022/03/21 01:39:20;;;;;;;11.40;6.32;;;5.20;45.10;;;;;;5055935;28;20483;-81
2022/03/21 01:41:46;;;;;;;10.38;6.13;;;5.20;45.30;;;;;;5064582;28;20029;-81
2022/03/21 01:44:12;;;;;;;10.65;5.95;;;5.20;45.50;;;;;;5070715;28;20036;-81
2022/03/21 01:46:39;;;;;;;10.82;6.03;;;5.10;45.50;;;;;;5051219;28;20545;-81
2022/03/21 01:49:07;;;;;;;11.70;5.85;;;5.10;45.80;;;;;;5052128;28;20039;-81
2022/03/21 01:51:36;;;;;;;11.43;6.32;;;5.20;45.40;;;;;;5052351;28;20365;-81
2022/03/21 01:56:47;;;;;;;9.85;6.53;;;5.10;45.60;;;;;;5070599;28;20043;-81
2022/03/21 01:59:14;;;;;;;10.88;6.15;;;5.10;46.10;;;;;;5043059;28;20033;-81
2022/03/21 02:01:40;;;;;;;9.48;5.47;;;5.10;46.10;;;;;;5047187;28;20468;-81
2022/03/21 02:04:07;;;;;;;10.85;6.50;;;5.00;45.90;;;;;;5071130;28;20043;-81
2022/03/21 02:06:33;;;;;;;11.52;6.30;;;5.00;46.50;;;;;;5063380;28;20071;-81
2022/03/21 02:08:59;;;;;;;11.35;6.35;;;4.90;46.50;;;;;;5064868;28;20029;-81
2022/03/21 02:11:29;;;;;;;10.98;6.22;;;5.10;46.40;;;;;;5048076;28;20027;-81
2022/03/21 02:13:57;;;;;;;12.27;6.80;;;5.10;45.90;;;;;;5066172;28;20035;-81
2022/03/21 02:16:24;;;;;;;12.23;6.05;;;5.10;46.30;;;;;;5053451;28;20056;-81
2022/03/21 02:18:50;;;;;;;12.63;6.65;;;5.00;46.70;;;;;;5054532;28;20439;-81
2022/03/21 02:21:37;;;;;;;12.50;7.07;;;4.90;47.00;;;;;;5062168;28;20169;-81
2022/03/21 02:24:09;;;;;;;11.05;6.53;;;4.90;46.80;;;;;;5063076;28;20480;-81
2022/03/21 02:26:36;;;;;;;8.65;5.57;;;4.80;47.50;;;;;;5044260;28;20032;-81
2022/03/21 02:29:03;;;;;;;10.40;5.82;;;4.80;47.60;;;;;;5053822;28;20028;-81
2022/03/21 02:31:28;;;;;;;10.18;6.28;;;4.70;48.10;;;;;;5065346;28;20032;-81
2022/03/21 02:33:55;;;;;;;11.60;6.68;;;4.70;48.00;;;;;;5067654;28;20392;-81
2022/03/21 02:36:22;;;;;;;13.60;6.45;;;4.60;47.90;;;;;;5064274;28;20045;-81
2022/03/21 02:38:49;;;;;;;14.55;6.78;;;4.60;48.10;;;;;;5066264;28;20036;-81
2022/03/21 02:41:15;;;;;;;10.60;6.72;;;4.60;47.80;;;;;;5061318;28;20032;-81
2022/03/21 02:43:58;;;;;;;12.27;6.93;;;4.70;47.90;;;;;;5049044;28;20040;-81
2022/03/21 02:46:25;;;;;;;11.98;6.50;;;4.70;47.60;;;;;;5045125;28;20474;-81
2022/03/21 02:48:54;;;;;;;12.45;6.45;;;4.60;48.20;;;;;;5050705;28;20270;-81
2022/03/21 02:51:20;;;;;;;13.75;7.30;;;4.60;47.90;;;;;;5058124;28;20361;-81
2022/03/21 02:53:49;;;;;;;9.80;6.35;;;4.60;48.50;;;;;;5072097;28;20033;-81
2022/03/21 02:56:15;;;;;;;10.48;6.82;;;4.60;48.40;;;;;;5044674;28;20016;-80
2022/03/21 02:58:40;;;;;;;11.50;6.68;;;4.50;48.30;;;;;;5071505;28;20542;-81
2022/03/21 03:01:08;;;;;;;11.15;6.72;;;4.60;48.10;;;;;;5056999;28;20967;-81
2022/03/21 03:03:33;;;;;;;10.63;6.60;;;4.60;48.20;;;;;;5064135;28;20415;-81
2022/03/21 03:05:59;;;;;;;16.42;7.18;;;4.50;48.70;;;;;;5049411;28;20082;-80
2022/03/21 03:08:24;;;;;;;11.63;7.10;;;4.40;48.70;;;;;;5050941;28;20495;-80
2022/03/21 03:10:50;;;;;;;13.45;6.80;;;4.30;49.20;;;;;;5056926;28;20024;-81
2022/03/21 03:13:15;;;;;;;11.73;6.65;;;4.30;49.20;;;;;;5048592;28;20024;-81
2022/03/21 03:15:41;;;;;;;11.55;6.70;;;4.20;49.60;;;;;;5061988;28;20039;-80
2022/03/21 03:18:06;;;;;;;13.25;7.22;;;4.20;49.60;;;;;;5069309;28;20400;-81
2022/03/21 03:20:32;;;;;;;12.88;7.13;;;4.20;50.00;;;;;;5064629;28;20059;-81
2022/03/21 03:23:00;;;;;;;12.85;7.07;;;4.10;50.10;;;;;;5068625;28;20024;-80
2022/03/21 03:25:26;;;;;;;12.70;7.63;;;4.10;50.10;;;;;;5066996;28;20024;-80
2022/03/21 03:27:52;;;;;;;11.60;6.72;;;4.10;50.10;;;;;;5052525;28;20037;-80
2022/03/21 03:30:17;;;;;;;13.90;7.20;;;4.10;50.30;;;;;;5075634;28;20024;-80
2022/03/21 03:32:45;;;;;;;11.80;7.18;;;4.00;50.60;;;;;;5071625;28;20039;-80
2022/03/21 03:35:11;;;;;;;14.98;6.70;;;3.90;50.90;;;;;;5051052;28;20094;-81
2022/03/21 03:37:36;;;;;;;13.50;7.47;;;3.90;50.90;;;;;;5067355;28;20045;-83
2022/03/21 03:40:03;;;;;;;14.77;7.15;;;3.90;50.90;;;;;;5057305;28;20078;-81
2022/03/21 03:42:28;;;;;;;12.63;7.05;;;3.90;51.00;;;;;;5061554;28;20029;-81
2022/03/21 03:44:54;;;;;;;12.10;7.00;;;3.80;51.40;;;;;;5054207;28;20455;-81
2022/03/21 03:47:19;;;;;;;14.05;7.00;;;3.90;51.20;;;;;;5070076;28;20050;-82
2022/03/21 03:49:45;;;;;;;14.38;7.28;;;3.90;50.80;;;;;;5065493;28;20044;-81
2022/03/21 03:52:10;;;;;;;13.07;7.57;;;3.80;51.50;;;;;;5054205;28;20467;-81
2022/03/21 03:54:36;;;;;;;12.98;7.15;;;3.80;51.50;;;;;;5048018;28;20021;-81
2022/03/21 03:57:01;;;;;;;14.02;7.57;;;3.70;51.90;;;;;;5052784;28;20113;-81
2022/03/21 03:59:27;;;;;;;12.13;7.10;;;3.60;52.30;;;;;;5063952;28;20056;-81
2022/03/21 04:01:52;;;;;;;13.98;7.55;;;3.60;52.90;;;;;;5053129;28;20035;-81
2022/03/21 04:04:19;;;;;;;12.70;7.70;;;3.60;52.80;;;;;;5076215;28;20040;-81
2022/03/21 04:06:45;;;;;;;12.70;7.55;;;3.50;53.00;;;;;;5076872;28;20506;-81
2022/03/21 04:09:10;;;;;;;11.15;7.10;;;3.50;53.00;;;;;;5068288;28;20032;-81
2022/03/21 04:11:36;;;;;;;12.20;7.78;;;3.50;52.70;;;;;;5052987;28;20094;-81
2022/03/21 04:14:02;;;;;;;13.05;7.75;;;3.50;52.70;;;;;;5065301;28;20037;-81
2022/03/21 04:16:27;;;;;;;17.00;8.40;;;3.60;52.80;;;;;;5070135;28;20103;-81
2022/03/21 04:18:53;;;;;;;14.13;7.95;;;3.50;53.10;;;;;;5049125;28;20034;-81
2022/03/21 04:21:18;;;;;;;12.05;7.90;;;3.50;53.50;;;;;;5057278;28;20028;-81
2022/03/21 04:23:44;;;;;;;15.20;8.05;;;3.50;53.40;;;;;;5052746;28;20371;-81
2022/03/21 04:26:12;;;;;;;16.15;8.45;;;3.40;53.60;;;;;;5064091;28;20044;-81
2022/03/21 04:28:37;;;;;;;13.57;7.93;;;3.50;53.40;;;;;;5052036;28;20055;-81
2022/03/21 04:31:03;;;;;;;13.77;7.55;;;3.50;53.70;;;;;;5045898;28;20530;-81
2022/03/21 04:33:29;;;;;;;15.45;8.50;;;3.50;53.50;;;;;;5068305;28;20073;-81
2022/03/21 04:35:54;;;;;;;13.65;7.95;;;3.50;53.30;;;;;;5050121;28;20038;-81
2022/03/21 04:38:20;;;;;;;13.63;8.20;;;3.60;53.00;;;;;;5051884;28;20475;-81
2022/03/21 04:40:48;;;;;;;16.33;8.38;;;3.60;53.20;;;;;;5068317;28;20032;-82
2022/03/21 04:43:15;;;;;;;16.30;8.15;;;3.60;52.90;;;;;;5055877;28;20059;-81
2022/03/21 04:45:42;;;;;;;13.88;8.40;;;3.50;53.10;;;;;;5059817;28;20051;-81
2022/03/21 04:48:08;;;;;;;14.13;8.35;;;3.50;53.20;;;;;;5065063;28;20395;-81
2022/03/21 04:50:34;;;;;;;15.32;7.43;;;3.50;53.40;;;;;;5062438;28;20030;-81
2022/03/21 04:52:59;;;;;;;13.20;8.13;;;3.50;53.50;;;;;;5066390;28;20052;-81
2022/03/21 04:55:26;;;;;;;15.57;8.38;;;3.50;53.60;;;;;;5075090;28;20035;-81
2022/03/21 04:57:51;;;;;;;13.13;8.02;;;3.50;53.50;;;;;;5051409;28;20028;-81
2022/03/21 05:00:17;;;;;;;12.63;7.80;;;3.50;53.80;;;;;;5067104;28;20337;-81
2022/03/21 05:02:43;;;;;;;14.45;7.97;;;3.50;53.60;;;;;;5069205;28;20059;-81
2022/03/21 05:05:08;;;;;;;16.45;8.50;;;3.50;53.90;;;;;;5077915;28;20523;-81
2022/03/21 05:07:42;;;;;;;17.70;9.32;;;3.40;53.60;;;;;;5050958;28;20032;-81
2022/03/21 05:10:09;;;;;;;15.38;8.43;;;3.50;53.90;;;;;;5049444;28;20483;-81
2022/03/21 05:12:35;;;;;;;15.65;9.18;;;3.40;53.90;;;;;;5062823;28;20027;-80
2022/03/21 05:15:00;;;;;;;13.70;8.20;;;3.40;54.10;;;;;;5068449;28;20025;-81
2022/03/21 05:17:29;;;;;;;16.45;8.80;;;3.40;54.10;;;;;;5070054;28;20028;-82
2022/03/21 05:19:55;;;;;;;16.63;9.25;;;3.30;54.20;;;;;;5051260;28;20028;-81
2022/03/21 05:22:21;;;;;;;13.75;8.55;;;3.40;54.00;;;;;;5060760;28;20560;-82
2022/03/21 05:35:57;;;;;;;15.77;8.60;;;3.40;54.00;;;;;;5062188;28;20526;-82
2022/03/21 05:38:28;;;;;;;14.73;8.80;;;3.40;54.00;;;;;;5046425;28;20028;-82
2022/03/21 05:41:00;;;;;;;14.82;8.48;;;3.40;54.20;;;;;;5072355;28;20540;-83
2022/03/21 05:43:29;;;;;;;13.82;8.23;;;3.40;54.50;;;;;;5050245;28;20029;-82
2022/03/21 05:45:55;;;;;;;17.60;8.75;;;3.40;54.00;;;;;;5050511;28;20035;-82
2022/03/21 05:51:06;;;;;;;13.77;8.23;;;3.50;53.90;;;;;;5067241;28;20047;-83
2022/03/21 05:53:32;;;;;;;16.17;9.05;;;3.50;54.20;;;;;;5050291;28;20029;-83
2022/03/21 05:56:00;;;;;;;14.20;8.65;;;3.50;54.10;;;;;;5056531;28;20047;-82
2022/03/21 05:58:26;;;;;;;16.15;9.13;;;3.50;54.10;;;;;;5046617;28;20083;-83
2022/03/21 06:00:52;;;;;;;15.80;9.60;;;3.50;54.50;;;;;;5041810;28;20082;-82
2022/03/21 06:03:18;;;;;;;17.90;8.70;;;3.50;53.80;;;;;;5066696;28;20028;-83
2022/03/21 06:05:44;;;;;;;15.05;8.80;;;3.60;54.10;;;;;;5068816;28;20104;-83
2022/03/21 06:08:10;;;;;;;13.55;8.65;;;3.50;54.50;;;;;;5048546;28;20021;-82
2022/03/21 06:10:38;;;;;;;16.08;8.88;;;3.50;54.20;;;;;;5037873;28;20020;-83
2022/03/21 06:13:08;;;;;;;19.67;8.63;;;3.50;54.80;;;;;;5046301;28;20563;-83
2022/03/21 06:15:35;;;;;;;14.43;8.80;;;3.50;54.50;;;;;;5074256;28;20013;-83
2022/03/21 06:18:01;;;;;;;14.75;8.77;;;3.60;54.60;;;;;;5073219;28;20020;-84
2022/03/21 06:20:27;;;;;;;15.32;9.05;;;3.60;54.60;;;;;;5058076;28;20441;-83
2022/03/21 06:22:53;;;;;;;14.75;9.57;;;3.60;54.60;;;;;;5068252;28;20032;-84
2022/03/21 06:25:18;;;;;;;13.45;8.48;;;3.70;54.40;;;;;;5066515;28;20032;-83
2022/03/21 06:27:44;;;;;;;17.10;9.45;;;3.70;54.60;;;;;;5069947;28;20052;-83
2022/03/21 06:30:10;;;;;;;16.50;9.55;;;3.70;54.40;;;;;;5050862;28;20028;-84
2022/03/21 06:32:37;;;;;;;15.52;8.50;;;3.80;54.00;;;;;;5044495;28;20032;-83
2022/03/21 06:35:04;;;;;;;16.05;9.00;;;3.90;53.90;;;;;;5052895;28;20052;-83
2022/03/21 06:37:30;;;;;;;16.48;8.52;;;3.90;54.20;;;;;;5068105;28;20036;-84
2022/03/21 06:39:56;;;;;;;14.35;9.23;;;4.00;53.90;;;;;;5062628;28;20027;-84
2022/03/21 06:42:22;;;;;;;17.08;9.55;;;4.10;53.70;;;;;;5059103;28;20029;-82
2022/03/21 06:44:49;;;;;;;15.15;8.75;;;4.10;53.30;;;;;;5048329;28;20033;-83
2022/03/21 06:47:17;;;;;;;16.02;9.05;;;4.10;53.30;;;;;;5051486;28;20056;-81
2022/03/21 06:49:42;;;;;;;17.50;9.40;;;4.10;53.50;;;;;;5048792;28;20063;-82
2022/03/21 06:52:08;;;;;;;14.68;8.77;;;4.20;53.80;;;;;;5049045;28;20560;-82
2022/03/21 06:54:35;;;;;;;15.30;9.35;;;4.20;53.70;;;;;;5056896;28;20033;-82
2022/03/21 06:57:01;;;;;;;15.27;9.13;;;4.30;53.30;;;;;;5071951;28;20051;-83
2022/03/21 06:59:29;;;;;;;18.83;9.50;;;4.40;53.00;;;;;;5059786;28;20112;-83
2022/03/21 07:01:57;;;;;;;17.10;9.00;;;4.40;53.30;;;;;;5064944;28;20383;-82
2022/03/21 07:04:25;;;;;;;18.25;9.27;;;4.50;52.70;;;;;;5066232;28;20028;-82
2022/03/21 07:06:51;;;;;;;13.48;8.63;;;4.60;52.80;;;;;;5058800;28;20487;-83
2022/03/21 07:09:16;;;;;;;19.02;10.05;;;4.80;52.30;;;;;;5053910;28;20079;-83
2022/03/21 07:11:42;;;;;;;16.05;9.20;;;4.90;51.70;;;;;;5059987;28;20020;-83
2022/03/21 07:14:08;;;;;;;14.82;8.82;;;5.00;51.50;;;;;;5056476;28;20032;-83
2022/03/21 07:16:33;;;;;;;16.02;8.90;;;5.10;51.00;;;;;;5076633;28;20495;-82
2022/03/21 07:18:59;;;;;;;15.93;9.32;;;5.30;51.30;;;;;;5061100;28;20044;-82
2022/03/21 07:21:24;;;;;;;16.55;9.32;;;5.40;50.50;;;;;;5072219;28;20041;-82
2022/03/21 07:23:50;;;;;;;13.57;9.25;;;5.40;50.90;;;;;;5067052;28;20028;-82
2022/03/21 07:26:15;;;;;;;14.07;9.88;;;5.60;49.60;;;;;;5052472;28;20502;-82
2022/03/21 07:28:41;;;;;;;18.92;9.48;;;5.60;50.90;;;;;;5062603;28;20068;-82
2022/03/21 07:31:09;;;;;;;14.35;8.88;;;5.60;49.50;;;;;;5064436;28;20480;-82
2022/03/21 07:33:36;;;;;;;15.13;8.75;;;5.70;49.20;;;;;;5044436;28;20078;-82
2022/03/21 07:36:03;;;;;;;15.77;9.57;;;5.70;49.60;;;;;;5063707;28;20041;-82
2022/03/21 07:38:29;;;;;;;13.40;9.05;;;5.80;49.20;;;;;;5047455;28;20025;-82
2022/03/21 07:40:55;;;;;;;14.27;8.85;;;5.90;49.20;;;;;;5074597;28;20035;-81
2022/03/21 07:43:21;;;;;;;15.80;9.27;;;6.10;49.30;;;;;;5048475;28;20025;-82
2022/03/21 07:48:32;;;;;;;15.00;9.38;;;6.20;49.20;;;;;;5061765;28;20132;-81
2022/03/21 07:50:58;;;;;;;14.77;9.18;;;6.40;48.90;;;;;;5043238;28;20462;-82
2022/03/21 07:53:24;;;;;;;12.88;8.55;;;6.50;48.20;;;;;;5060553;28;20431;-83
2022/03/21 07:55:49;;;;;;;13.20;8.52;;;6.40;48.20;;;;;;5065707;28;20032;-83
2022/03/21 07:58:15;;;;;;;18.05;10.30;;;6.60;48.10;;;;;;5048734;28;20111;-82
2022/03/21 08:00:41;;;;;;;14.48;9.18;;;6.70;47.70;;;;;;5074644;28;20078;-83
2022/03/21 08:03:11;;;;;;;16.13;9.13;;;6.80;47.50;;;;;;5052315;28;20036;-82
2022/03/21 08:05:37;;;;;;;12.50;8.38;;;6.80;47.10;;;;;;5053512;28;20028;-82
2022/03/21 08:08:03;;;;;;;15.85;9.80;;;6.90;47.10;;;;;;5055300;28;20078;-82
2022/03/21 08:10:29;;;;;;;15.40;9.48;;;6.90;47.10;;;;;;5064388;28;20043;-83
2022/03/21 08:12:56;;;;;;;16.65;9.05;;;7.00;47.70;;;;;;5053874;28;20506;-82
2022/03/21 08:15:22;;;;;;;17.52;9.13;;;7.20;47.30;;;;;;5052186;28;20139;-82
2022/03/21 08:18:03;;;;;;;16.38;9.43;;;7.50;47.60;;;;;;5067451;28;20480;-83
2022/03/21 08:20:38;;;;;;;14.73;9.93;;;7.60;46.70;;;;;;5076373;28;20031;-83
2022/03/21 08:23:06;;;;;;;12.60;8.43;;;7.80;46.30;;;;;;5058444;28;20033;-82
2022/03/21 08:25:33;;;;;;;13.77;8.88;;;8.00;45.70;;;;;;5052756;28;20047;-83
2022/03/21 08:27:59;;;;;;;12.45;8.93;;;8.30;45.60;;;;;;5064892;28;20070;-84
2022/03/21 08:30:27;;;;;;;17.98;10.20;;;8.60;44.70;;;;;;5070407;28;20017;-83
2022/03/21 08:32:53;;;;;;;15.45;9.23;;;8.50;44.70;;;;;;5052435;28;20029;-84
2022/03/21 08:35:19;;;;;;;14.75;9.90;;;8.80;44.50;;;;;;5057674;28;20037;-84
2022/03/21 08:37:46;;;;;;;13.63;8.48;;;9.10;43.90;;;;;;5072445;28;20444;-84
2022/03/21 08:40:12;;;;;;;14.25;8.85;;;9.00;43.70;;;;;;5067507;28;20388;-84
2022/03/21 08:42:39;;;;;;;16.75;9.45;;;9.30;43.40;;;;;;5056189;28;20467;-84
2022/03/21 08:45:06;;;;;;;16.00;8.98;;;9.30;42.60;;;;;;5061342;28;20430;-84
2022/03/21 08:47:32;;;;;;;13.85;8.65;;;9.60;42.30;;;;;;5059109;28;20559;-84
2022/03/21 08:49:57;;;;;;;15.50;9.02;;;9.40;43.60;;;;;;5052338;28;20060;-84
2022/03/21 08:52:23;;;;;;;14.57;8.57;;;9.50;41.80;;;;;;5072406;28;20067;-84
2022/03/21 08:54:49;;;;;;;15.68;9.25;;;9.80;42.40;;;;;;5057866;28;20032;-84
2022/03/21 08:57:14;;;;;;;13.10;9.25;;;9.90;42.40;;;;;;5055162;28;20023;-84
2022/03/21 08:59:40;;;;;;;13.82;9.50;;;10.30;42.00;;;;;;5043293;28;20027;-85
2022/03/21 09:02:08;;;;;;;19.55;9.75;;;10.40;42.10;;;;;;5053013;28;20493;-84
2022/03/21 09:04:35;;;;;;;12.82;8.68;;;10.30;41.60;;;;;;5091299;28;20059;-84
2022/03/21 09:07:01;;;;;;;12.35;8.55;;;10.20;41.30;;;;;;5083886;28;20025;-84
2022/03/21 09:09:26;;;;;;;11.82;8.38;;;10.30;41.80;;;;;;5063805;28;20399;-84
2022/03/21 09:11:52;;;;;;;15.38;9.75;;;10.50;42.20;;;;;;5057223;28;20035;-84
2022/03/21 09:14:17;;;;;;;13.60;8.60;;;11.00;41.90;;;;;;5061574;28;20021;-84
2022/03/21 09:16:43;;;;;;;15.15;8.98;;;10.70;40.90;;;;;;5057218;28;20473;-84
2022/03/21 09:19:09;;;;;;;14.27;9.32;;;10.70;40.80;;;;;;5050993;28;20498;-84
2022/03/21 09:21:35;;;;;;;13.27;8.93;;;10.30;41.60;;;;;;5061123;28;20143;-84
2022/03/21 09:24:01;;;;;;;16.10;9.07;;;10.50;40.80;;;;;;5078074;28;20422;-84
2022/03/21 09:26:27;;;;;;;13.73;9.60;;;10.90;40.20;;;;;;5058956;28;20089;-83
2022/03/21 09:28:59;;;;;;;13.38;9.32;;;11.20;40.50;;;;;;5056896;28;20032;-84
2022/03/21 09:31:26;;;;;;;16.45;9.40;;;11.30;39.60;;;;;;5044774;28;20063;-84
2022/03/21 09:33:52;;;;;;;12.95;9.30;;;11.40;38.80;;;;;;5049451;28;20052;-84
2022/03/21 09:36:17;;;;;;;16.83;10.18;;;11.20;38.70;;;;;;5084085;28;20079;-84
2022/03/21 09:38:43;;;;;;;15.88;9.30;;;11.00;39.10;;;;;;5072803;28;20479;-84
2022/03/21 09:41:13;;;;;;;14.55;9.35;;;10.80;39.50;;;;;;5065639;28;20027;-84
2022/03/21 09:43:39;;;;;;;14.50;9.10;;;10.90;40.00;;;;;;5053525;28;20480;-83
2022/03/21 09:46:08;;;;;;;14.02;8.93;;;11.10;40.80;;;;;;5071083;28;20032;-84
2022/03/21 09:48:34;;;;;;;11.05;8.32;;;11.40;39.70;;;;;;5052550;28;20507;-84
2022/03/21 09:51:03;;;;;;;15.38;8.95;;;11.50;39.10;;;;;;5087441;28;20028;-84
2022/03/21 09:53:29;;;;;;;14.63;9.65;;;11.50;38.40;;;;;;5068543;28;20024;-84
2022/03/21 09:55:55;;;;;;;15.95;9.45;;;11.50;38.80;;;;;;5073080;28;20039;-84
2022/03/21 09:58:21;;;;;;;15.25;9.38;;;11.40;38.80;;;;;;5048810;28;20059;-84
2022/03/21 10:00:49;;;;;;;13.25;9.82;;;11.60;38.90;;;;;;5074457;28;20043;-83
2022/03/21 10:03:15;;;;;;;13.13;8.77;;;12.00;38.20;;;;;;5055691;28;20032;-83
2022/03/21 10:05:42;;;;;;;14.68;9.35;;;12.00;38.90;;;;;;5064209;28;20040;-83
2022/03/21 10:08:20;;;;;;;13.82;8.70;;;12.20;37.50;;;;;;5073567;28;20461;-83
2022/03/21 10:10:56;;;;;;;11.75;8.32;;;12.10;37.80;;;;;;5060164;28;20032;-83
2022/03/21 10:13:27;;;;;;;15.82;9.52;;;12.50;38.50;;;;;;5063673;28;20028;-83
2022/03/21 10:16:16;;;;;;;14.85;10.02;;;12.60;36.70;;;;;;5047262;28;20499;-84
2022/03/21 10:18:53;;;;;;;14.52;9.40;;;12.50;37.10;;;;;;5070297;28;20067;-83
2022/03/21 10:21:20;;;;;;;14.25;9.85;;;12.70;37.20;;;;;;5057739;28;20536;-84
2022/03/21 10:24:06;;;;;;;14.73;9.68;;;13.00;37.30;;;;;;5066980;28;20406;-83
2022/03/21 10:26:34;;;;;;;15.05;9.60;;;12.80;37.50;;;;;;5059242;28;20033;-83
2022/03/21 10:29:05;;;;;;;14.30;9.15;;;13.50;37.90;;;;;;5072526;28;20025;-84
2022/03/21 10:31:35;;;;;;;14.90;9.63;;;13.80;36.70;;;;;;5061316;28;20025;-83
2022/03/21 10:34:03;;;;;;;14.85;9.40;;;13.60;35.40;;;;;;5065750;28;20579;-84
2022/03/21 10:36:29;;;;;;;16.73;10.15;;;13.60;35.70;;;;;;5092570;28;20079;-84
2022/03/21 10:39:10;;;;;;;13.45;9.45;;;13.50;36.00;;;;;;5075672;28;20063;-84
2022/03/21 10:41:37;;;;;;;12.90;9.23;;;13.20;35.80;;;;;;5067100;28;20029;-83
2022/03/21 10:44:04;;;;;;;16.13;9.13;;;13.70;36.30;;;;;;5063989;28;20094;-84
2022/03/21 10:46:30;;;;;;;15.23;9.50;;;14.10;36.40;;;;;;5065783;28;20024;-83
2022/03/21 10:49:08;;;;;;;13.90;8.98;;;14.40;35.40;;;;;;5045313;28;20033;-84
2022/03/21 10:51:54;;;;;;;14.88;9.68;;;14.00;36.40;;;;;;5051325;28;20028;-84
2022/03/21 10:54:57;;;;;;;14.27;8.90;;;14.30;35.40;;;;;;5050934;28;20021;-84
2022/03/21 10:57:32;;;;;;;14.07;9.10;;;14.20;35.10;;;;;;5070422;28;20067;-84
2022/03/21 11:00:15;;;;;;;14.85;9.32;;;14.30;34.00;;;;;;5056183;28;20106;-85
2022/03/21 11:02:47;;;;;;;15.77;9.35;;;14.20;35.90;;;;;;5051561;28;20070;-84
2022/03/21 11:05:13;;;;;;;18.05;9.48;;;14.30;34.40;;;;;;5051445;28;20151;-84
2022/03/21 11:07:39;;;;;;;16.58;10.38;;;14.60;34.90;;;;;;5055978;28;20091;-84
2022/03/21 11:10:05;;;;;;;15.32;9.60;;;14.60;34.50;;;;;;5071851;28;20028;-85
2022/03/21 11:12:33;;;;;;;15.07;9.60;;;14.80;35.40;;;;;;5079432;28;20024;-84
2022/03/21 11:14:59;;;;;;;14.63;9.35;;;14.90;34.80;;;;;;5054651;28;20476;-84
2022/03/21 11:17:24;;;;;;;13.00;9.70;;;15.00;34.80;;;;;;5069947;28;20079;-84
2022/03/21 11:19:51;;;;;;;12.65;9.23;;;14.90;33.40;;;;;;5062870;28;20060;-84
2022/03/21 11:22:17;;;;;;;15.30;9.73;;;14.80;34.20;;;;;;5051293;28;20058;-85
2022/03/21 11:24:43;;;;;;;14.55;10.05;;;15.00;34.50;;;;;;5052856;28;20084;-85
2022/03/21 11:27:34;;;;;;;14.65;9.38;;;14.70;33.90;;;;;;5055257;28;20028;-85
2022/03/21 11:30:16;;;;;;;14.02;10.00;;;15.10;33.30;;;;;;5048481;28;20085;-85
2022/03/21 11:33:06;;;;;;;15.00;9.57;;;15.00;33.40;;;;;;5063539;28;20056;-84
2022/03/21 11:35:34;;;;;;;14.05;9.35;;;15.40;34.50;;;;;;5062022;28;20139;-85
2022/03/21 11:38:28;;;;;;;16.67;10.85;;;15.50;33.20;;;;;;5074862;28;20036;-85
2022/03/21 11:41:14;;;;;;;13.65;10.05;;;15.60;33.40;;;;;;5060524;28;20032;-85
2022/03/21 11:43:45;;;;;;;14.30;10.27;;;15.60;32.80;;;;;;5050962;28;20036;-85
2022/03/21 11:46:29;;;;;;;13.75;9.48;;;15.40;33.40;;;;;;5055044;28;20031;-85
2022/03/21 11:48:56;;;;;;;15.05;9.98;;;16.00;31.80;;;;;;5050400;28;20048;-84
2022/03/21 11:51:23;;;;;;;13.20;9.30;;;15.90;32.90;;;;;;5047127;28;20040;-85
2022/03/21 11:53:51;;;;;;;14.57;10.60;;;16.40;32.30;;;;;;5044609;28;20021;-85
2022/03/21 11:56:41;;;;;;;15.73;9.52;;;15.80;32.60;;;;;;5050441;28;20142;-85
2022/03/21 11:59:08;;;;;;;13.73;10.10;;;16.10;33.00;;;;;;5044622;28;20029;-85
2022/03/21 12:01:35;;;;;;;13.05;10.10;;;15.90;33.30;;;;;;5067855;28;20039;-84
2022/03/21 12:04:23;;;;;;;17.40;9.70;;;16.50;31.70;;;;;;5050143;28;20033;-85
2022/03/21 12:06:49;;;;;;;13.70;9.55;;;16.90;31.30;;;;;;5044696;28;20036;-85
2022/03/21 12:09:15;;;;;;;13.27;9.25;;;16.90;31.80;;;;;;5054161;28;20024;-85
2022/03/21 12:11:41;;;;;;;13.13;9.50;;;17.00;31.80;;;;;;5060617;28;20040;-85
2022/03/21 12:14:19;;;;;;;13.95;9.52;;;16.60;31.50;;;;;;5048707;28;20628;-85
2022/03/21 12:16:46;;;;;;;14.98;10.13;;;17.00;31.80;;;;;;5048020;28;20273;-85
2022/03/21 12:19:11;;;;;;;16.75;10.00;;;17.20;31.40;;;;;;5067594;28;20036;-85
2022/03/21 12:21:37;;;;;;;16.17;9.85;;;17.10;31.30;;;;;;5046789;28;20066;-84
2022/03/21 12:24:17;;;;;;;13.93;9.70;;;17.50;30.80;;;;;;5047525;28;20037;-85
2022/03/21 12:26:54;;;;;;;13.80;9.48;;;17.00;31.10;;;;;;5066604;28;20036;-84
2022/03/21 12:29:32;;;;;;;14.32;9.65;;;17.10;31.10;;;;;;5070411;28;20552;-84
2022/03/21 12:32:26;;;;;;;13.98;8.90;;;17.30;30.90;;;;;;5058154;28;20082;-85
2022/03/21 12:34:54;;;;;;;13.23;9.23;;;17.50;31.10;;;;;;5063485;28;20021;-85
2022/03/21 12:37:31;;;;;;;14.48;9.05;;;17.70;30.80;;;;;;5048004;28;20121;-84
2022/03/21 12:39:59;;;;;;;13.50;8.93;;;17.80;30.40;;;;;;5041438;28;22144;-85
2022/03/21 12:42:27;;;;;;;14.88;9.85;;;17.10;30.70;;;;;;5064753;28;20461;-85
2022/03/21 12:44:52;;;;;;;12.48;8.98;;;17.30;30.30;;;;;;5044835;28;20035;-85
2022/03/21 12:47:21;;;;;;;13.88;9.88;;;17.90;30.70;;;;;;5046046;28;20399;-85
2022/03/21 12:49:51;;;;;;;16.63;10.23;;;18.10;30.00;;;;;;5059097;28;20577;-85
2022/03/21 12:52:31;;;;;;;19.92;10.18;;;17.60;30.40;;;;;;5066988;28;20042;-84
2022/03/21 12:55:00;;;;;;;12.25;8.98;;;17.90;30.60;;;;;;5047867;28;20024;-85
2022/03/21 12:57:27;;;;;;;14.30;8.93;;;17.70;30.60;;;;;;5045242;28;20025;-85
2022/03/21 13:00:12;;;;;;;16.98;10.07;;;17.50;30.20;;;;;;5064557;28;20028;-85
2022/03/21 13:02:39;;;;;;;15.65;9.88;;;17.80;29.80;;;;;;5045370;28;20388;-86
2022/03/21 13:10:38;;;;;;;12.25;9.07;;;18.00;30.50;;;;;;5063553;28;20465;-86
2022/03/21 13:13:04;;;;;;;16.10;10.80;;;18.10;30.40;;;;;;5052724;28;20532;-85